createdAt,value
2023-02-27T00:01:34.025Z,-2.54
2023-02-27T00:04:00.909Z,-2.45
2023-02-27T00:06:28.033Z,-2.32
2023-02-27T00:08:54.652Z,-2.39
2023-02-27T00:11:21.223Z,-2.26
2023-02-27T00:13:47.771Z,-2.22
2023-02-27T00:16:14.763Z,-2.24
2023-02-27T00:18:41.432Z,-2.26
2023-02-27T00:21:07.915Z,-2.25
2023-02-27T00:23:34.410Z,-2.15
2023-02-27T00:26:01.043Z,-2.19
2023-02-27T00:28:27.884Z,-2.21
2023-02-27T00:30:54.578Z,-2.16
2023-02-27T00:33:21.179Z,-2.23
2023-02-27T00:36:01.321Z,-2.22
2023-02-27T00:38:27.938Z,-2.15
2023-02-27T00:40:54.444Z,-2.10
2023-02-27T00:43:21.175Z,-2.17
2023-02-27T00:45:48.345Z,-2.19
2023-02-27T00:48:15.231Z,-2.15
2023-02-27T00:50:42.024Z,-2.27
2023-02-27T00:53:08.527Z,-2.26
2023-02-27T00:55:35.093Z,-2.30
2023-02-27T00:58:01.665Z,-2.28
2023-02-27T01:00:28.257Z,-2.30
2023-02-27T01:02:54.841Z,-2.27
2023-02-27T01:05:21.521Z,-2.37
2023-02-27T01:07:48.047Z,-2.34
2023-02-27T01:10:14.562Z,-2.30
2023-02-27T01:12:41.355Z,-2.37
2023-02-27T01:15:08.606Z,-2.33
2023-02-27T01:17:35.062Z,-2.36
2023-02-27T01:20:01.600Z,-2.34
2023-02-27T01:22:28.094Z,-2.27
2023-02-27T01:24:54.562Z,-2.36
2023-02-27T01:27:21.033Z,-2.37
2023-02-27T01:29:47.527Z,-2.36
2023-02-27T01:32:14.080Z,-2.35
2023-02-27T01:34:40.646Z,-2.37
2023-02-27T01:37:07.152Z,-2.38
2023-02-27T01:39:33.667Z,-2.40
2023-02-27T01:42:00.993Z,-2.39
2023-02-27T01:44:29.069Z,-2.46
2023-02-27T01:46:55.604Z,-2.45
2023-02-27T01:49:32.571Z,-2.41
2023-02-27T01:52:06.058Z,-2.43
2023-02-27T01:54:39.185Z,-2.43
2023-02-27T01:57:06.740Z,-2.44
2023-02-27T01:59:34.120Z,-2.43
2023-02-27T02:02:02.201Z,-2.40
2023-02-27T02:04:31.092Z,-2.40
2023-02-27T02:07:00.522Z,-2.41
2023-02-27T02:09:27.367Z,-2.33
2023-02-27T02:11:53.841Z,-2.37
2023-02-27T02:14:20.270Z,-2.38
2023-02-27T02:17:08.832Z,-2.37
2023-02-27T02:19:54.463Z,-2.44
2023-02-27T02:22:39.505Z,-2.41
2023-02-27T02:25:11.583Z,-2.33
2023-02-27T02:28:07.084Z,-2.29
2023-02-27T02:30:50.680Z,-2.24
2023-02-27T02:33:34.931Z,-2.33
2023-02-27T02:36:10.368Z,-2.29
2023-02-27T02:38:53.404Z,-2.24
2023-02-27T02:41:43.504Z,-2.17
2023-02-27T02:44:24.354Z,-2.17
2023-02-27T02:47:06.261Z,-2.22
2023-02-27T02:49:54.411Z,-2.11
2023-02-27T02:52:26.489Z,-2.06
2023-02-27T02:55:06.575Z,-2.07
2023-02-27T02:57:55.964Z,-1.99
2023-02-27T03:00:25.315Z,-2.01
2023-02-27T03:02:54.964Z,-1.95
2023-02-27T03:05:32.916Z,-1.99
2023-02-27T03:08:20.263Z,-1.93
2023-02-27T03:10:51.075Z,-1.98
2023-02-27T03:13:24.603Z,-2.02
2023-02-27T03:16:04.920Z,-2.06
2023-02-27T03:18:41.170Z,-2.05
2023-02-27T03:21:10.352Z,-2.16
2023-02-27T03:23:43.962Z,-2.10
2023-02-27T03:26:10.519Z,-2.13
2023-02-27T03:28:38.693Z,-2.16
2023-02-27T03:31:19.927Z,-2.18
2023-02-27T03:33:49.354Z,-2.13
2023-02-27T03:36:28.102Z,-2.15
2023-02-27T03:39:05.596Z,-2.16
2023-02-27T03:41:53.347Z,-2.17
2023-02-27T03:44:28.195Z,-2.16
2023-02-27T03:46:54.798Z,-2.19
2023-02-27T03:49:21.250Z,-2.15
2023-02-27T03:51:48.003Z,-2.20
2023-02-27T03:54:30.500Z,-2.25
2023-02-27T03:57:00.172Z,-2.16
2023-02-27T03:59:26.670Z,-2.20
2023-02-27T04:01:53.650Z,-2.10
2023-02-27T04:04:20.233Z,-2.11
2023-02-27T04:07:08.954Z,-2.16
2023-02-27T04:10:09.431Z,-2.18
2023-02-27T04:12:45.909Z,-2.16
2023-02-27T04:15:18.411Z,-2.21
2023-02-27T04:18:04.109Z,-2.24
2023-02-27T04:20:45.518Z,-2.26
2023-02-27T04:23:31.109Z,-2.24
2023-02-27T04:26:16.378Z,-2.30
2023-02-27T04:28:50.810Z,-2.34
2023-02-27T04:31:22.564Z,-2.38
2023-02-27T04:33:52.100Z,-2.38
2023-02-27T04:36:41.794Z,-2.40
2023-02-27T04:39:11.407Z,-2.35
2023-02-27T04:41:44.455Z,-2.41
2023-02-27T04:44:11.314Z,-2.49
2023-02-27T04:46:39.028Z,-2.42
2023-02-27T04:49:23.117Z,-2.44
2023-02-27T04:51:55.605Z,-2.41
2023-02-27T04:54:28.826Z,-2.51
2023-02-27T04:56:57.760Z,-2.62
2023-02-27T04:59:29.901Z,-2.61
2023-02-27T05:02:02.024Z,-2.73
2023-02-27T05:04:31.198Z,-2.75
2023-02-27T05:06:57.753Z,-2.73
2023-02-27T05:09:46.953Z,-2.72
2023-02-27T05:12:23.085Z,-2.81
2023-02-27T05:14:51.455Z,-2.85
2023-02-27T05:17:25.253Z,-2.85
2023-02-27T05:19:51.789Z,-2.79
2023-02-27T05:22:36.967Z,-2.70
2023-02-27T05:25:29.377Z,-2.79
2023-02-27T05:28:02.577Z,-2.82
2023-02-27T05:30:47.469Z,-2.83
2023-02-27T05:33:17.848Z,-2.81
2023-02-27T05:36:06.314Z,-2.67
2023-02-27T05:38:40.806Z,-2.61
2023-02-27T05:41:12.021Z,-2.63
2023-02-27T05:43:44.881Z,-2.56
2023-02-27T05:46:15.907Z,-2.62
2023-02-27T05:49:03.982Z,-2.56
2023-02-27T05:51:32.269Z,-2.61
2023-02-27T05:54:02.674Z,-2.58
2023-02-27T05:56:30.051Z,-2.58
2023-02-27T05:59:06.448Z,-2.61
2023-02-27T06:01:33.126Z,-2.59
2023-02-27T06:03:59.625Z,-2.51
2023-02-27T06:06:26.385Z,-2.55
2023-02-27T06:08:53.079Z,-2.61
2023-02-27T06:11:19.543Z,-2.68
2023-02-27T06:13:46.162Z,-2.71
2023-02-27T06:16:13.590Z,-2.73
2023-02-27T06:18:40.100Z,-2.78
2023-02-27T06:21:06.695Z,-2.80
2023-02-27T06:23:33.179Z,-2.81
2023-02-27T06:25:59.666Z,-2.78
2023-02-27T06:28:26.377Z,-2.76
2023-02-27T06:30:57.124Z,-2.81
2023-02-27T06:33:25.862Z,-2.87
2023-02-27T06:35:52.559Z,-2.88
2023-02-27T06:38:19.095Z,-2.85
2023-02-27T06:40:45.578Z,-2.80
2023-02-27T06:43:12.141Z,-2.74
2023-02-27T06:45:38.815Z,-2.80
2023-02-27T06:48:05.506Z,-2.78
2023-02-27T06:50:32.063Z,-2.78
2023-02-27T06:52:58.587Z,-2.72
2023-02-27T06:55:25.670Z,-2.76
2023-02-27T06:57:52.260Z,-2.71
2023-02-27T07:00:19.176Z,-2.60
2023-02-27T07:02:45.723Z,-2.57
2023-02-27T07:05:12.260Z,-2.55
2023-02-27T07:07:39.240Z,-2.61
2023-02-27T07:10:11.720Z,-2.50
2023-02-27T07:12:38.935Z,-2.52
2023-02-27T07:15:06.171Z,-2.50
2023-02-27T07:17:32.721Z,-2.48
2023-02-27T07:19:59.462Z,-2.44
2023-02-27T07:22:25.938Z,-2.49
2023-02-27T07:24:52.474Z,-2.50
2023-02-27T07:27:19.003Z,-2.50
2023-02-27T07:29:46.288Z,-2.47
2023-02-27T07:32:12.835Z,-2.42
2023-02-27T07:34:39.397Z,-2.41
2023-02-27T07:37:05.906Z,-2.41
2023-02-27T07:39:32.398Z,-2.38
2023-02-27T07:41:59.070Z,-2.37
2023-02-27T07:44:25.570Z,-2.38
2023-02-27T07:46:52.240Z,-2.36
2023-02-27T07:49:19.964Z,-2.28
2023-02-27T07:51:46.465Z,-2.23
2023-02-27T07:54:12.941Z,-2.30
2023-02-27T07:56:39.498Z,-2.22
2023-02-27T07:59:05.973Z,-2.30
2023-02-27T08:01:32.549Z,-2.17
2023-02-27T08:03:59.142Z,-2.11
2023-02-27T08:06:26.052Z,-2.14
2023-02-27T08:08:52.857Z,-2.12
2023-02-27T08:11:19.404Z,-2.04
2023-02-27T08:14:02.764Z,-1.99
2023-02-27T08:16:30.782Z,-1.94
2023-02-27T08:18:57.811Z,-1.92
2023-02-27T08:21:24.463Z,-1.89
2023-02-27T08:23:51.122Z,-1.80
2023-02-27T08:26:17.607Z,-1.72
2023-02-27T08:28:44.456Z,-1.75
2023-02-27T08:31:11.025Z,-1.66
2023-02-27T08:33:37.534Z,-1.71
2023-02-27T08:36:04.226Z,-1.61
2023-02-27T08:38:31.179Z,-1.58
2023-02-27T08:40:57.692Z,-1.63
2023-02-27T08:43:24.205Z,-1.61
2023-02-27T08:45:50.919Z,-1.59
2023-02-27T08:48:18.407Z,-1.56
2023-02-27T08:50:45.453Z,-1.39
2023-02-27T08:53:12.186Z,-1.41
2023-02-27T08:55:38.687Z,-1.31
2023-02-27T08:58:05.162Z,-1.31
2023-02-27T09:00:32.802Z,-1.43
2023-02-27T09:03:00.191Z,-1.19
2023-02-27T09:05:27.383Z,-1.11
2023-02-27T09:07:53.923Z,-1.15
2023-02-27T09:10:20.441Z,-0.95
2023-02-27T09:12:49.196Z,-0.74
2023-02-27T09:15:15.789Z,-0.84
2023-02-27T09:17:42.292Z,-0.67
2023-02-27T09:20:09.874Z,-0.90
2023-02-27T09:22:36.462Z,-0.99
2023-02-27T09:25:02.973Z,-0.87
2023-02-27T09:27:29.458Z,-0.78
2023-02-27T09:29:56.436Z,-0.66
2023-02-27T09:32:23.484Z,-0.90
2023-02-27T09:34:50.090Z,-0.81
2023-02-27T09:37:16.795Z,-0.71
2023-02-27T09:39:44.683Z,-0.69
2023-02-27T09:42:18.018Z,-0.58
2023-02-27T09:44:56.089Z,-0.55
2023-02-27T09:47:39.760Z,-0.62
2023-02-27T09:50:33.812Z,-0.54
2023-02-27T09:53:00.600Z,-0.41
2023-02-27T09:55:27.611Z,-0.38
2023-02-27T09:58:17.488Z,-0.49
2023-02-27T10:00:51.475Z,-0.40
2023-02-27T10:03:43.343Z,-0.42
2023-02-27T10:06:43.801Z,-0.56
2023-02-27T10:09:58.289Z,-0.48
2023-02-27T10:12:52.786Z,-0.27
2023-02-27T10:15:34.945Z,0.03
2023-02-27T10:18:30.682Z,0.05
2023-02-27T10:21:03.508Z,0.19
2023-02-27T10:23:40.661Z,0.38
2023-02-27T10:26:08.194Z,0.06
2023-02-27T10:28:34.706Z,0.08
2023-02-27T10:31:02.028Z,0.34
2023-02-27T10:33:31.248Z,0.59
2023-02-27T10:35:57.886Z,0.59
2023-02-27T10:38:37.324Z,0.37
2023-02-27T10:41:03.930Z,0.54
2023-02-27T10:43:30.399Z,0.42
2023-02-27T10:46:00.704Z,0.56
2023-02-27T10:48:27.258Z,0.50
2023-02-27T10:50:54.416Z,0.59
2023-02-27T10:53:22.936Z,0.55
2023-02-27T10:56:01.629Z,0.53
2023-02-27T10:58:34.425Z,0.48
2023-02-27T11:01:04.010Z,0.69
2023-02-27T11:03:33.874Z,0.52
2023-02-27T11:06:04.775Z,0.74
2023-02-27T11:08:32.114Z,0.75
2023-02-27T11:11:06.138Z,0.69
2023-02-27T11:13:34.418Z,0.82
2023-02-27T11:16:15.883Z,0.99
2023-02-27T11:18:43.783Z,1.13
2023-02-27T11:21:11.665Z,0.90
2023-02-27T11:23:38.237Z,0.69
2023-02-27T11:26:16.899Z,0.86
2023-02-27T11:28:43.575Z,1.07
2023-02-27T11:31:18.658Z,1.00
2023-02-27T11:33:53.223Z,0.77
2023-02-27T11:36:19.960Z,0.75
2023-02-27T11:38:53.938Z,0.86
2023-02-27T11:41:20.421Z,0.64
2023-02-27T11:43:48.390Z,0.34
2023-02-27T11:46:43.394Z,0.24
2023-02-27T11:49:32.285Z,0.43
2023-02-27T11:52:12.403Z,0.56
2023-02-27T11:54:58.492Z,0.45
2023-02-27T11:57:24.979Z,0.34
2023-02-27T12:00:14.498Z,0.51
2023-02-27T12:03:13.226Z,0.62
2023-02-27T12:05:54.123Z,0.64
2023-02-27T12:08:35.974Z,1.62
2023-02-27T12:11:14.312Z,0.97
2023-02-27T12:13:42.364Z,0.49
2023-02-27T12:16:27.247Z,0.11
2023-02-27T12:18:57.821Z,0.31
2023-02-27T12:22:04.355Z,0.85
2023-02-27T12:24:36.821Z,0.65
2023-02-27T12:27:09.241Z,0.94
2023-02-27T12:29:41.691Z,0.48
2023-02-27T12:32:22.343Z,0.22
2023-02-27T12:35:01.354Z,0.40
2023-02-27T12:37:28.716Z,0.90
2023-02-27T12:39:56.635Z,0.79
2023-02-27T12:42:36.199Z,0.46
2023-02-27T12:45:27.660Z,0.33
2023-02-27T12:48:25.558Z,0.77
2023-02-27T12:51:04.257Z,0.98
2023-02-27T12:54:07.726Z,1.74
2023-02-27T12:56:44.025Z,1.35
2023-02-27T12:59:37.233Z,1.47
2023-02-27T13:02:09.486Z,1.20
2023-02-27T13:04:45.503Z,0.93
2023-02-27T13:07:30.678Z,0.74
2023-02-27T13:10:02.112Z,0.46
2023-02-27T13:12:40.476Z,0.61
2023-02-27T13:15:31.382Z,0.66
2023-02-27T13:18:36.484Z,0.99
2023-02-27T13:21:13.671Z,1.01
2023-02-27T13:23:52.536Z,0.70
2023-02-27T13:26:30.518Z,0.39
2023-02-27T13:28:57.765Z,0.49
2023-02-27T13:31:27.473Z,0.75
2023-02-27T13:34:26.244Z,0.56
2023-02-27T13:37:06.533Z,0.70
2023-02-27T13:39:48.858Z,0.56
2023-02-27T13:42:27.364Z,0.44
2023-02-27T13:44:56.561Z,0.41
2023-02-27T13:47:29.220Z,0.27
2023-02-27T13:49:59.706Z,0.18
2023-02-27T13:52:44.720Z,0.35
2023-02-27T13:55:28.088Z,0.42
2023-02-27T13:57:55.243Z,0.39
2023-02-27T14:00:23.635Z,0.52
2023-02-27T14:03:00.311Z,0.63
2023-02-27T14:05:36.116Z,0.49
2023-02-27T14:08:07.922Z,0.44
2023-02-27T14:10:34.487Z,0.54
2023-02-27T14:13:01.756Z,0.66
2023-02-27T14:15:30.998Z,0.58
2023-02-27T14:18:13.926Z,0.42
2023-02-27T14:20:42.344Z,0.49
2023-02-27T14:23:22.683Z,0.96
2023-02-27T14:26:18.661Z,0.90
2023-02-27T14:28:55.669Z,0.58
2023-02-27T14:31:32.979Z,0.66
2023-02-27T14:34:05.111Z,0.48
2023-02-27T14:37:01.565Z,0.28
2023-02-27T14:39:32.802Z,-0.02
2023-02-27T14:42:17.046Z,-0.16
2023-02-27T14:44:45.386Z,-0.09
2023-02-27T14:47:27.707Z,-0.01
2023-02-27T14:49:56.125Z,0.00
2023-02-27T14:52:27.496Z,0.10
2023-02-27T14:54:55.182Z,0.21
2023-02-27T14:57:24.202Z,0.06
2023-02-27T14:59:51.701Z,0.09
2023-02-27T15:02:29.719Z,0.08
2023-02-27T15:05:13.638Z,0.06
2023-02-27T15:07:40.190Z,0.10
2023-02-27T15:10:08.285Z,0.17
2023-02-27T15:12:38.113Z,0.23
2023-02-27T15:15:06.065Z,0.33
2023-02-27T15:17:42.266Z,0.32
2023-02-27T15:20:22.748Z,0.20
2023-02-27T15:22:49.221Z,0.12
2023-02-27T15:25:35.261Z,0.06
2023-02-27T15:28:06.364Z,0.04
2023-02-27T15:30:32.900Z,0.02
2023-02-27T15:32:59.963Z,0.10
2023-02-27T15:35:35.503Z,0.06
2023-02-27T15:38:02.757Z,0.07
2023-02-27T15:40:31.102Z,0.06
2023-02-27T15:42:57.875Z,0.06
2023-02-27T15:45:31.184Z,-0.01
2023-02-27T15:47:57.692Z,-0.01
2023-02-27T15:50:37.426Z,0.05
2023-02-27T15:53:23.705Z,-0.06
2023-02-27T15:56:01.152Z,-0.09
2023-02-27T15:58:38.476Z,-0.12
2023-02-27T16:01:11.397Z,-0.12
2023-02-27T16:03:39.709Z,-0.16
2023-02-27T16:06:11.222Z,-0.21
2023-02-27T16:08:37.756Z,-0.26
2023-02-27T16:11:04.532Z,-0.24
2023-02-27T16:13:37.685Z,-0.32
2023-02-27T16:16:27.975Z,-0.31
2023-02-27T16:18:58.959Z,-0.23
2023-02-27T16:21:26.687Z,-0.28
2023-02-27T16:23:53.888Z,-0.28
2023-02-27T16:26:36.567Z,-0.36
2023-02-27T16:29:05.219Z,-0.35
2023-02-27T16:31:32.505Z,-0.39
2023-02-27T16:34:44.662Z,-0.41
2023-02-27T16:37:20.802Z,-0.43
2023-02-27T16:39:49.203Z,-0.38
2023-02-27T16:42:15.667Z,-0.42
2023-02-27T16:44:42.312Z,-0.38
2023-02-27T16:47:09.370Z,-0.42
2023-02-27T16:49:35.878Z,-0.43
2023-02-27T16:52:03.817Z,-0.44
2023-02-27T16:54:30.317Z,-0.42
2023-02-27T16:56:57.023Z,-0.46
2023-02-27T16:59:27.740Z,-0.54
2023-02-27T17:01:56.397Z,-0.56
2023-02-27T17:04:26.105Z,-0.53
2023-02-27T17:06:52.989Z,-0.61
2023-02-27T17:09:19.555Z,-0.67
2023-02-27T17:11:45.994Z,-0.67
2023-02-27T17:14:12.478Z,-0.71
2023-02-27T17:16:39.148Z,-0.81
2023-02-27T17:19:05.840Z,-0.81
2023-02-27T17:21:32.758Z,-0.77
2023-02-27T17:23:59.250Z,-0.90
2023-02-27T17:26:27.035Z,-0.88
2023-02-27T17:28:54.716Z,-0.92
2023-02-27T17:31:23.171Z,-0.98
2023-02-27T17:33:50.989Z,-0.94
2023-02-27T17:36:17.529Z,-0.95
2023-02-27T17:38:44.213Z,-0.95
2023-02-27T17:41:11.460Z,-0.97
2023-02-27T17:43:37.990Z,-0.91
2023-02-27T17:46:08.341Z,-0.98
2023-02-27T17:48:35.610Z,-0.97
2023-02-27T17:51:08.984Z,-0.99
2023-02-27T17:53:36.148Z,-0.97
2023-02-27T17:56:02.709Z,-1.01
2023-02-27T17:58:29.439Z,-1.01
2023-02-27T18:00:56.315Z,-1.09
2023-02-27T18:03:22.799Z,-1.17
2023-02-27T18:05:52.375Z,-1.18
2023-02-27T18:08:19.178Z,-1.19
2023-02-27T18:10:49.146Z,-1.22
2023-02-27T18:13:16.576Z,-1.28
2023-02-27T18:15:43.342Z,-1.34
2023-02-27T18:18:10.094Z,-1.42
2023-02-27T18:20:37.138Z,-1.37
2023-02-27T18:23:03.891Z,-1.48
2023-02-27T18:25:30.373Z,-1.44
2023-02-27T18:27:57.204Z,-1.47
2023-02-27T18:30:24.132Z,-1.43
2023-02-27T18:32:50.702Z,-1.55
2023-02-27T18:35:17.269Z,-1.53
2023-02-27T18:37:43.753Z,-1.62
2023-02-27T18:40:12.232Z,-1.65
2023-02-27T18:42:38.895Z,-1.67
2023-02-27T18:45:05.710Z,-1.72
2023-02-27T18:47:32.170Z,-1.65
2023-02-27T18:49:58.718Z,-1.65
2023-02-27T18:52:25.363Z,-1.66
2023-02-27T18:54:51.916Z,-1.74
2023-02-27T18:57:18.956Z,-1.68
2023-02-27T18:59:47.430Z,-1.71
2023-02-27T19:02:14.323Z,-1.69
2023-02-27T19:04:40.814Z,-1.80
2023-02-27T19:07:07.334Z,-1.79
2023-02-27T19:09:33.877Z,-1.86
2023-02-27T19:12:00.702Z,-1.86
2023-02-27T19:14:27.479Z,-1.87
2023-02-27T19:16:54.037Z,-1.87
2023-02-27T19:19:20.544Z,-1.96
2023-02-27T19:21:49.972Z,-1.93
2023-02-27T19:24:16.748Z,-1.99
2023-02-27T19:26:43.340Z,-1.99
2023-02-27T19:29:09.839Z,-2.08
2023-02-27T19:31:36.445Z,-2.02
2023-02-27T19:34:03.010Z,-2.09
2023-02-27T19:36:30.193Z,-2.11
2023-02-27T19:38:56.992Z,-2.01
2023-02-27T19:41:23.788Z,-2.08
2023-02-27T19:43:50.478Z,-2.09
2023-02-27T19:46:19.031Z,-2.08
2023-02-27T19:48:45.587Z,-2.06
2023-02-27T19:51:13.049Z,-2.09
2023-02-27T19:53:40.059Z,-2.11
2023-02-27T19:56:08.315Z,-2.10
2023-02-27T19:58:35.894Z,-2.11
2023-02-27T20:01:03.165Z,-2.04
2023-02-27T20:03:29.763Z,-1.96
2023-02-27T20:05:56.457Z,-1.93
2023-02-27T20:08:23.151Z,-1.97
2023-02-27T20:11:00.010Z,-2.00
2023-02-27T20:13:27.362Z,-2.11
2023-02-27T20:16:01.983Z,-2.15
2023-02-27T20:18:29.867Z,-2.17
2023-02-27T20:21:03.653Z,-2.21
2023-02-27T20:23:30.957Z,-2.19
2023-02-27T20:25:57.503Z,-2.27
2023-02-27T20:28:23.993Z,-2.35
2023-02-27T20:30:50.446Z,-2.28
2023-02-27T20:33:16.997Z,-2.28
2023-02-27T20:35:43.612Z,-2.35
2023-02-27T20:38:10.162Z,-2.29
2023-02-27T20:40:36.648Z,-2.30
2023-02-27T20:43:04.050Z,-2.39
2023-02-27T20:45:30.570Z,-2.32
2023-02-27T20:47:57.022Z,-2.35
2023-02-27T20:50:23.505Z,-2.37
2023-02-27T20:52:53.530Z,-2.35
2023-02-27T20:55:20.013Z,-2.34
2023-02-27T20:57:46.541Z,-2.41
2023-02-27T21:00:13.518Z,-2.47
2023-02-27T21:02:40.076Z,-2.40
2023-02-27T21:05:07.075Z,-2.40
2023-02-27T21:07:33.671Z,-2.46
2023-02-27T21:10:00.171Z,-2.44
2023-02-27T21:12:26.723Z,-2.43
2023-02-27T21:14:53.225Z,-2.49
2023-02-27T21:17:19.700Z,-2.45
2023-02-27T21:19:46.446Z,-2.58
2023-02-27T21:22:14.203Z,-2.63
2023-02-27T21:24:40.792Z,-2.63
2023-02-27T21:27:07.416Z,-2.62
2023-02-27T21:29:34.188Z,-2.65
2023-02-27T21:32:01.053Z,-2.63
2023-02-27T21:34:27.905Z,-2.53
2023-02-27T21:36:54.509Z,-2.67
2023-02-27T21:39:23.238Z,-2.68
2023-02-27T21:41:50.283Z,-2.70
2023-02-27T21:44:18.481Z,-2.71
2023-02-27T21:46:45.257Z,-2.80
2023-02-27T21:49:22.714Z,-2.72
2023-02-27T21:51:49.287Z,-2.75
2023-02-27T21:54:16.225Z,-2.73
2023-02-27T21:56:43.023Z,-2.79
2023-02-27T21:59:09.574Z,-2.77
2023-02-27T22:01:36.151Z,-2.76
2023-02-27T22:04:03.529Z,-2.78
2023-02-27T22:06:33.551Z,-2.77
2023-02-27T22:09:01.678Z,-2.80
2023-02-27T22:11:29.789Z,-2.82
2023-02-27T22:13:56.510Z,-2.80
2023-02-27T22:16:23.071Z,-2.74
2023-02-27T22:18:49.644Z,-2.77
2023-02-27T22:21:20.597Z,-2.76
2023-02-27T22:23:47.190Z,-2.79
2023-02-27T22:26:15.763Z,-2.83
2023-02-27T22:28:42.297Z,-2.86
2023-02-27T22:31:11.798Z,-2.82
2023-02-27T22:33:38.682Z,-2.86
2023-02-27T22:36:12.421Z,-2.84
2023-02-27T22:38:38.949Z,-2.85
2023-02-27T22:41:20.229Z,-2.79
2023-02-27T22:43:47.150Z,-2.80
2023-02-27T22:46:16.449Z,-2.82
2023-02-27T22:48:43.296Z,-2.77
2023-02-27T22:51:14.448Z,-2.75
2023-02-27T22:53:42.154Z,-2.74
2023-02-27T22:56:10.620Z,-2.68
2023-02-27T22:58:37.854Z,-2.72
2023-02-27T23:01:28.929Z,-2.74
2023-02-27T23:04:00.247Z,-2.75
2023-02-27T23:06:30.797Z,-2.80
2023-02-27T23:08:57.498Z,-2.88
2023-02-27T23:11:24.012Z,-2.91
2023-02-27T23:13:50.471Z,-2.94
2023-02-27T23:16:17.522Z,-2.91
2023-02-27T23:18:48.678Z,-3.01
2023-02-27T23:21:16.066Z,-2.92
2023-02-27T23:23:43.030Z,-2.92
2023-02-27T23:26:09.686Z,-2.94
2023-02-27T23:28:36.715Z,-3.04
2023-02-27T23:31:04.338Z,-3.04
2023-02-27T23:33:30.992Z,-3.03
2023-02-27T23:35:57.741Z,-3.09
2023-02-27T23:38:25.098Z,-3.06
2023-02-27T23:40:51.634Z,-3.10
2023-02-27T23:43:18.109Z,-3.08
2023-02-27T23:45:44.674Z,-3.06
2023-02-27T23:48:11.229Z,-3.09
2023-02-27T23:50:39.240Z,-3.09
2023-02-27T23:53:06.045Z,-2.99
2023-02-27T23:55:34.133Z,-2.97
2023-02-27T23:58:02.447Z,-2.94
